sensor_id;sensor_type;location;lat;lon;timestamp;pressure;altitude;pressure_sealevel;temperature;humidity
17635;BME280;8936;49.010;12.120;2023-05-29T00:01:25;97928.34;;;19.69;54.81
17635;BME280;8936;49.010;12.120;2023-05-29T00:03:52;97929.94;;;19.78;54.87
17635;BME280;8936;49.010;12.120;2023-05-29T00:06:18;97935.34;;;19.87;54.63
17635;BME280;8936;49.010;12.120;2023-05-29T00:08:45;97941.44;;;20.68;53.14
17635;BME280;8936;49.010;12.120;2023-05-29T00:11:12;97939.91;;;20.59;53.12
17635;BME280;8936;49.010;12.120;2023-05-29T00:13:39;97946.00;;;20.01;54.89
17635;BME280;8936;49.010;12.120;2023-05-29T00:16:06;97941.28;;;20.35;54.97
17635;BME280;8936;49.010;12.120;2023-05-29T00:18:34;97949.03;;;20.54;53.93
17635;BME280;8936;49.010;12.120;2023-05-29T00:21:01;97943.34;;;20.68;54.07
17635;BME280;8936;49.010;12.120;2023-05-29T00:23:27;97944.41;;;20.84;53.60
17635;BME280;8936;49.010;12.120;2023-05-29T00:25:53;97953.09;;;20.22;54.83
17635;BME280;8936;49.010;12.120;2023-05-29T00:28:20;97954.97;;;19.92;55.65
17635;BME280;8936;49.010;12.120;2023-05-29T00:30:46;97957.16;;;20.08;55.61
17635;BME280;8936;49.010;12.120;2023-05-29T00:33:14;97954.22;;;20.21;55.50
17635;BME280;8936;49.010;12.120;2023-05-29T00:35:40;97957.75;;;20.13;55.45
17635;BME280;8936;49.010;12.120;2023-05-29T00:38:07;97952.88;;;19.89;55.99
17635;BME280;8936;49.010;12.120;2023-05-29T00:40:33;97940.13;;;19.90;56.72
17635;BME280;8936;49.010;12.120;2023-05-29T00:42:59;97939.38;;;19.55;57.07
17635;BME280;8936;49.010;12.120;2023-05-29T00:45:26;97939.69;;;19.54;58.35
17635;BME280;8936;49.010;12.120;2023-05-29T00:47:52;97940.94;;;19.22;58.66
17635;BME280;8936;49.010;12.120;2023-05-29T00:50:20;97947.94;;;19.23;58.96
17635;BME280;8936;49.010;12.120;2023-05-29T00:52:48;97944.59;;;19.17;59.39
17635;BME280;8936;49.010;12.120;2023-05-29T00:55:15;97947.81;;;19.71;58.23
17635;BME280;8936;49.010;12.120;2023-05-29T00:57:42;97953.66;;;19.90;57.53
17635;BME280;8936;49.010;12.120;2023-05-29T01:00:09;97939.78;;;20.00;57.21
17635;BME280;8936;49.010;12.120;2023-05-29T01:02:39;97945.84;;;19.97;57.10
17635;BME280;8936;49.010;12.120;2023-05-29T01:05:06;97948.06;;;20.88;55.04
17635;BME280;8936;49.010;12.120;2023-05-29T01:07:36;97945.75;;;20.69;54.71
17635;BME280;8936;49.010;12.120;2023-05-29T01:10:02;97952.91;;;21.03;54.26
17635;BME280;8936;49.010;12.120;2023-05-29T01:12:32;97948.06;;;21.38;53.31
17635;BME280;8936;49.010;12.120;2023-05-29T01:15:04;97943.00;;;21.48;52.76
17635;BME280;8936;49.010;12.120;2023-05-29T01:17:37;97946.78;;;21.56;52.59
17635;BME280;8936;49.010;12.120;2023-05-29T01:20:08;97954.91;;;21.35;52.59
17635;BME280;8936;49.010;12.120;2023-05-29T01:22:50;97950.09;;;21.41;52.64
17635;BME280;8936;49.010;12.120;2023-05-29T01:25:21;97958.44;;;21.15;53.13
17635;BME280;8936;49.010;12.120;2023-05-29T01:27:51;97938.97;;;21.13;53.21
17635;BME280;8936;49.010;12.120;2023-05-29T01:30:18;97942.09;;;21.44;52.58
17635;BME280;8936;49.010;12.120;2023-05-29T01:32:46;97936.22;;;21.54;52.28
17635;BME280;8936;49.010;12.120;2023-05-29T01:35:13;97941.91;;;21.62;52.10
17635;BME280;8936;49.010;12.120;2023-05-29T01:37:39;97931.06;;;21.62;51.97
17635;BME280;8936;49.010;12.120;2023-05-29T01:40:06;97931.84;;;21.62;51.85
17635;BME280;8936;49.010;12.120;2023-05-29T01:42:33;97934.09;;;21.60;51.98
17635;BME280;8936;49.010;12.120;2023-05-29T01:45:01;97934.16;;;21.51;52.13
17635;BME280;8936;49.010;12.120;2023-05-29T01:47:28;97934.16;;;21.51;52.09
17635;BME280;8936;49.010;12.120;2023-05-29T01:49:55;97934.16;;;21.51;51.96
17635;BME280;8936;49.010;12.120;2023-05-29T01:52:22;97933.84;;;21.53;51.84
17635;BME280;8936;49.010;12.120;2023-05-29T01:54:48;97936.88;;;21.51;51.87
17635;BME280;8936;49.010;12.120;2023-05-29T01:57:14;97935.09;;;21.56;51.62
17635;BME280;8936;49.010;12.120;2023-05-29T01:59:41;97931.28;;;21.57;51.57
17635;BME280;8936;49.010;12.120;2023-05-29T02:02:09;97925.84;;;21.57;51.43
17635;BME280;8936;49.010;12.120;2023-05-29T02:04:36;97929.00;;;21.59;51.35
17635;BME280;8936;49.010;12.120;2023-05-29T02:07:03;97923.31;;;21.51;51.51
17635;BME280;8936;49.010;12.120;2023-05-29T02:09:30;97928.06;;;21.54;51.44
17635;BME280;8936;49.010;12.120;2023-05-29T02:11:56;97917.56;;;21.53;51.58
17635;BME280;8936;49.010;12.120;2023-05-29T02:14:23;97933.50;;;21.54;51.62
17635;BME280;8936;49.010;12.120;2023-05-29T02:16:49;97920.56;;;21.19;52.17
17635;BME280;8936;49.010;12.120;2023-05-29T02:19:18;97912.34;;;21.27;52.12
17635;BME280;8936;49.010;12.120;2023-05-29T02:21:44;97911.47;;;21.15;52.18
17635;BME280;8936;49.010;12.120;2023-05-29T02:24:10;97908.06;;;20.76;52.84
17635;BME280;8936;49.010;12.120;2023-05-29T02:26:37;97910.59;;;20.43;54.03
17635;BME280;8936;49.010;12.120;2023-05-29T02:29:03;97916.13;;;20.26;54.37
17635;BME280;8936;49.010;12.120;2023-05-29T02:31:31;97910.59;;;20.43;54.65
17635;BME280;8936;49.010;12.120;2023-05-29T02:33:58;97905.91;;;20.23;54.69
17635;BME280;8936;49.010;12.120;2023-05-29T02:36:25;97909.22;;;20.67;54.04
17635;BME280;8936;49.010;12.120;2023-05-29T02:38:52;97909.88;;;20.64;53.63
17635;BME280;8936;49.010;12.120;2023-05-29T02:41:19;97911.16;;;20.87;53.48
17635;BME280;8936;49.010;12.120;2023-05-29T02:43:46;97915.09;;;20.98;53.10
17635;BME280;8936;49.010;12.120;2023-05-29T02:46:12;97911.72;;;21.01;52.99
17635;BME280;8936;49.010;12.120;2023-05-29T02:48:38;97911.72;;;21.01;52.80
17635;BME280;8936;49.010;12.120;2023-05-29T02:51:05;97912.09;;;20.62;53.42
17635;BME280;8936;49.010;12.120;2023-05-29T02:53:32;97918.09;;;20.76;53.33
17635;BME280;8936;49.010;12.120;2023-05-29T02:55:59;97914.81;;;20.32;54.01
17635;BME280;8936;49.010;12.120;2023-05-29T02:58:25;97919.50;;;20.53;54.11
17635;BME280;8936;49.010;12.120;2023-05-29T03:00:52;97921.47;;;20.73;53.64
17635;BME280;8936;49.010;12.120;2023-05-29T03:03:18;97916.22;;;20.68;53.37
17635;BME280;8936;49.010;12.120;2023-05-29T03:05:45;97914.72;;;20.50;54.02
17635;BME280;8936;49.010;12.120;2023-05-29T03:08:12;97917.41;;;20.12;54.70
17635;BME280;8936;49.010;12.120;2023-05-29T03:10:40;97910.66;;;19.80;55.32
17635;BME280;8936;49.010;12.120;2023-05-29T03:13:06;97915.56;;;19.95;55.69
17635;BME280;8936;49.010;12.120;2023-05-29T03:15:32;97907.94;;;19.71;56.01
17635;BME280;8936;49.010;12.120;2023-05-29T03:17:59;97908.78;;;19.29;56.98
17635;BME280;8936;49.010;12.120;2023-05-29T03:20:25;97911.63;;;19.32;58.09
17635;BME280;8936;49.010;12.120;2023-05-29T03:22:53;97918.16;;;19.31;58.62
17635;BME280;8936;49.010;12.120;2023-05-29T03:25:19;97912.47;;;19.42;58.43
17635;BME280;8936;49.010;12.120;2023-05-29T03:27:47;97914.06;;;19.43;58.09
17635;BME280;8936;49.010;12.120;2023-05-29T03:30:13;97907.84;;;19.42;57.58
17635;BME280;8936;49.010;12.120;2023-05-29T03:32:40;97912.13;;;19.17;58.44
17635;BME280;8936;49.010;12.120;2023-05-29T03:35:07;97914.03;;;19.00;58.90
17635;BME280;8936;49.010;12.120;2023-05-29T03:37:33;97913.56;;;19.06;59.19
17635;BME280;8936;49.010;12.120;2023-05-29T03:40:01;97915.44;;;18.80;59.43
17635;BME280;8936;49.010;12.120;2023-05-29T03:42:28;97918.47;;;19.13;59.98
17635;BME280;8936;49.010;12.120;2023-05-29T03:44:57;97934.81;;;18.65;60.58
17635;BME280;8936;49.010;12.120;2023-05-29T03:47:24;97930.88;;;18.40;61.95
17635;BME280;8936;49.010;12.120;2023-05-29T03:49:50;97930.88;;;18.31;63.64
17635;BME280;8936;49.010;12.120;2023-05-29T03:52:16;97929.44;;;18.34;64.40
17635;BME280;8936;49.010;12.120;2023-05-29T03:54:43;97928.16;;;18.31;64.52
17635;BME280;8936;49.010;12.120;2023-05-29T03:57:10;97924.78;;;18.26;65.09
17635;BME280;8936;49.010;12.120;2023-05-29T03:59:36;97922.94;;;19.00;62.39
17635;BME280;8936;49.010;12.120;2023-05-29T04:02:04;97932.81;;;19.22;60.85
17635;BME280;8936;49.010;12.120;2023-05-29T04:04:30;97932.97;;;19.25;60.19
17635;BME280;8936;49.010;12.120;2023-05-29T04:06:56;97933.66;;;19.39;60.35
17635;BME280;8936;49.010;12.120;2023-05-29T04:09:23;97932.16;;;19.85;58.62
17635;BME280;8936;49.010;12.120;2023-05-29T04:11:49;97941.41;;;19.84;58.05
17635;BME280;8936;49.010;12.120;2023-05-29T04:14:17;97947.13;;;19.91;57.93
17635;BME280;8936;49.010;12.120;2023-05-29T04:16:43;97940.84;;;20.16;57.07
17635;BME280;8936;49.010;12.120;2023-05-29T04:19:10;97942.06;;;19.38;58.22
17635;BME280;8936;49.010;12.120;2023-05-29T04:21:37;97952.22;;;18.81;60.98
17635;BME280;8936;49.010;12.120;2023-05-29T04:24:03;97948.69;;;18.72;62.25
17635;BME280;8936;49.010;12.120;2023-05-29T04:26:30;97947.41;;;18.39;64.35
17635;BME280;8936;49.010;12.120;2023-05-29T04:28:57;97957.06;;;18.22;66.54
17635;BME280;8936;49.010;12.120;2023-05-29T04:31:24;97963.72;;;18.16;66.58
17635;BME280;8936;49.010;12.120;2023-05-29T04:33:51;97957.69;;;18.19;67.35
17635;BME280;8936;49.010;12.120;2023-05-29T04:36:22;97957.34;;;18.52;67.39
17635;BME280;8936;49.010;12.120;2023-05-29T04:38:50;97970.03;;;18.12;67.01
17635;BME280;8936;49.010;12.120;2023-05-29T04:41:17;97971.84;;;18.25;67.03
17635;BME280;8936;49.010;12.120;2023-05-29T04:43:43;97974.53;;;18.16;67.13
17635;BME280;8936;49.010;12.120;2023-05-29T04:46:10;97981.81;;;18.47;66.68
17635;BME280;8936;49.010;12.120;2023-05-29T04:48:37;97991.31;;;17.83;68.86
17635;BME280;8936;49.010;12.120;2023-05-29T04:51:05;97992.38;;;17.73;70.02
17635;BME280;8936;49.010;12.120;2023-05-29T04:53:33;97987.53;;;18.14;69.78
17635;BME280;8936;49.010;12.120;2023-05-29T04:55:59;97993.47;;;18.25;67.60
17635;BME280;8936;49.010;12.120;2023-05-29T04:58:26;97985.75;;;18.71;66.58
17635;BME280;8936;49.010;12.120;2023-05-29T05:00:52;97987.09;;;18.21;67.09
17635;BME280;8936;49.010;12.120;2023-05-29T05:03:22;97990.25;;;17.92;68.63
17635;BME280;8936;49.010;12.120;2023-05-29T05:05:49;97994.75;;;17.74;70.38
17635;BME280;8936;49.010;12.120;2023-05-29T05:08:16;98001.63;;;18.33;69.49
17635;BME280;8936;49.010;12.120;2023-05-29T05:10:44;97987.34;;;18.72;65.82
17635;BME280;8936;49.010;12.120;2023-05-29T05:13:10;97990.56;;;18.83;64.93
17635;BME280;8936;49.010;12.120;2023-05-29T05:15:37;97989.06;;;18.60;65.02
17635;BME280;8936;49.010;12.120;2023-05-29T05:18:04;98001.00;;;18.67;65.51
17635;BME280;8936;49.010;12.120;2023-05-29T05:20:30;97995.59;;;19.32;63.26
17635;BME280;8936;49.010;12.120;2023-05-29T05:22:57;98008.63;;;19.13;62.77
17635;BME280;8936;49.010;12.120;2023-05-29T05:25:25;98013.09;;;19.26;62.00
17635;BME280;8936;49.010;12.120;2023-05-29T05:27:52;98004.88;;;19.40;61.33
17635;BME280;8936;49.010;12.120;2023-05-29T05:30:19;98015.00;;;19.26;61.76
17635;BME280;8936;49.010;12.120;2023-05-29T05:32:45;98008.31;;;19.23;62.39
17635;BME280;8936;49.010;12.120;2023-05-29T05:35:11;98008.38;;;19.58;61.47
17635;BME280;8936;49.010;12.120;2023-05-29T05:37:38;98009.50;;;19.48;61.56
17635;BME280;8936;49.010;12.120;2023-05-29T05:40:05;98007.09;;;19.72;60.78
17635;BME280;8936;49.010;12.120;2023-05-29T05:42:33;98016.00;;;20.07;59.71
17635;BME280;8936;49.010;12.120;2023-05-29T05:45:02;98011.06;;;20.01;59.74
17635;BME280;8936;49.010;12.120;2023-05-29T05:47:29;98011.03;;;20.26;59.06
17635;BME280;8936;49.010;12.120;2023-05-29T05:49:55;98008.56;;;20.51;58.37
17635;BME280;8936;49.010;12.120;2023-05-29T05:52:22;98008.91;;;20.40;58.63
17635;BME280;8936;49.010;12.120;2023-05-29T05:54:48;98010.28;;;20.64;58.17
17635;BME280;8936;49.010;12.120;2023-05-29T05:57:15;98011.22;;;20.97;57.37
17635;BME280;8936;49.010;12.120;2023-05-29T05:59:41;98012.75;;;21.15;56.96
17635;BME280;8936;49.010;12.120;2023-05-29T06:02:09;98006.81;;;21.42;56.27
17635;BME280;8936;49.010;12.120;2023-05-29T06:04:35;98018.69;;;21.59;56.15
17635;BME280;8936;49.010;12.120;2023-05-29T06:07:01;98016.44;;;21.40;56.93
17635;BME280;8936;49.010;12.120;2023-05-29T06:09:28;98018.44;;;20.93;57.91
17635;BME280;8936;49.010;12.120;2023-05-29T06:11:54;98022.75;;;20.94;58.64
17635;BME280;8936;49.010;12.120;2023-05-29T06:14:20;98019.03;;;20.98;58.86
17635;BME280;8936;49.010;12.120;2023-05-29T06:16:47;98024.28;;;21.04;58.88
17635;BME280;8936;49.010;12.120;2023-05-29T06:19:15;98026.13;;;20.91;59.16
17635;BME280;8936;49.010;12.120;2023-05-29T06:21:41;98031.72;;;20.86;59.12
17635;BME280;8936;49.010;12.120;2023-05-29T06:24:07;98035.13;;;21.12;58.94
17635;BME280;8936;49.010;12.120;2023-05-29T06:26:34;98031.59;;;21.41;58.59
17635;BME280;8936;49.010;12.120;2023-05-29T06:29:01;98028.09;;;21.40;58.94
17635;BME280;8936;49.010;12.120;2023-05-29T06:31:27;98032.13;;;21.34;58.80
17635;BME280;8936;49.010;12.120;2023-05-29T06:33:53;98028.16;;;21.52;58.36
17635;BME280;8936;49.010;12.120;2023-05-29T06:36:23;98027.38;;;21.52;58.65
17635;BME280;8936;49.010;12.120;2023-05-29T06:38:50;98030.88;;;21.52;58.81
17635;BME280;8936;49.010;12.120;2023-05-29T06:41:16;98025.13;;;21.95;57.93
17635;BME280;8936;49.010;12.120;2023-05-29T06:43:43;98028.19;;;22.39;56.97
17635;BME280;8936;49.010;12.120;2023-05-29T06:46:10;98033.78;;;22.54;56.17
17635;BME280;8936;49.010;12.120;2023-05-29T06:48:37;98038.44;;;22.09;57.15
17635;BME280;8936;49.010;12.120;2023-05-29T06:51:03;98042.09;;;21.92;57.75
17635;BME280;8936;49.010;12.120;2023-05-29T06:53:35;98049.09;;;22.14;57.53
17635;BME280;8936;49.010;12.120;2023-05-29T06:56:02;98040.34;;;22.09;56.80
17635;BME280;8936;49.010;12.120;2023-05-29T06:58:29;98039.78;;;22.03;57.44
17635;BME280;8936;49.010;12.120;2023-05-29T07:00:55;98038.41;;;21.97;57.59
17635;BME280;8936;49.010;12.120;2023-05-29T07:03:21;98038.00;;;22.19;57.60
17635;BME280;8936;49.010;12.120;2023-05-29T07:05:48;98041.59;;;22.11;57.93
17635;BME280;8936;49.010;12.120;2023-05-29T07:08:14;98045.31;;;22.06;57.30
17635;BME280;8936;49.010;12.120;2023-05-29T07:10:42;98044.31;;;21.70;58.20
17635;BME280;8936;49.010;12.120;2023-05-29T07:13:08;98039.22;;;22.42;57.36
17635;BME280;8936;49.010;12.120;2023-05-29T07:15:36;98045.81;;;21.88;57.75
17635;BME280;8936;49.010;12.120;2023-05-29T07:18:03;98038.03;;;21.78;58.16
17635;BME280;8936;49.010;12.120;2023-05-29T07:20:29;98036.66;;;22.25;57.92
17635;BME280;8936;49.010;12.120;2023-05-29T07:22:56;98038.44;;;21.88;57.18
17635;BME280;8936;49.010;12.120;2023-05-29T07:25:22;98037.97;;;21.86;57.83
17635;BME280;8936;49.010;12.120;2023-05-29T07:27:50;98028.63;;;21.96;57.82
17635;BME280;8936;49.010;12.120;2023-05-29T07:30:16;98038.03;;;21.78;56.72
17635;BME280;8936;49.010;12.120;2023-05-29T07:32:43;98036.38;;;21.65;56.83
17635;BME280;8936;49.010;12.120;2023-05-29T07:35:10;98031.19;;;22.13;57.20
17635;BME280;8936;49.010;12.120;2023-05-29T07:37:36;98037.69;;;21.79;56.64
17635;BME280;8936;49.010;12.120;2023-05-29T07:40:03;98038.31;;;21.64;56.18
17635;BME280;8936;49.010;12.120;2023-05-29T07:42:30;98040.44;;;21.59;56.19
17635;BME280;8936;49.010;12.120;2023-05-29T07:44:58;98040.22;;;22.05;56.11
17635;BME280;8936;49.010;12.120;2023-05-29T07:47:24;98035.97;;;22.28;55.48
17635;BME280;8936;49.010;12.120;2023-05-29T07:49:51;98033.06;;;22.00;54.53
17635;BME280;8936;49.010;12.120;2023-05-29T07:52:18;98029.75;;;21.74;54.97
17635;BME280;8936;49.010;12.120;2023-05-29T07:54:44;98037.84;;;21.83;54.87
17635;BME280;8936;49.010;12.120;2023-05-29T07:57:10;98037.63;;;21.67;53.75
17635;BME280;8936;49.010;12.120;2023-05-29T07:59:37;98039.69;;;21.70;54.28
17635;BME280;8936;49.010;12.120;2023-05-29T08:02:06;98044.69;;;22.10;54.00
17635;BME280;8936;49.010;12.120;2023-05-29T08:04:33;98039.09;;;22.51;53.79
17635;BME280;8936;49.010;12.120;2023-05-29T08:06:59;98034.97;;;22.78;52.67
17635;BME280;8936;49.010;12.120;2023-05-29T08:09:26;98035.19;;;22.73;52.69
17635;BME280;8936;49.010;12.120;2023-05-29T08:11:52;98033.94;;;22.25;51.88
17635;BME280;8936;49.010;12.120;2023-05-29T08:14:19;98035.97;;;22.61;52.04
17635;BME280;8936;49.010;12.120;2023-05-29T08:16:45;98036.97;;;22.56;52.45
17635;BME280;8936;49.010;12.120;2023-05-29T08:19:13;98037.22;;;22.64;52.20
17635;BME280;8936;49.010;12.120;2023-05-29T08:21:39;98033.56;;;22.59;51.31
17635;BME280;8936;49.010;12.120;2023-05-29T08:24:06;98029.75;;;23.09;49.84
17635;BME280;8936;49.010;12.120;2023-05-29T08:26:32;98027.91;;;23.49;50.54
17635;BME280;8936;49.010;12.120;2023-05-29T08:28:58;98025.00;;;23.06;48.49
17635;BME280;8936;49.010;12.120;2023-05-29T08:31:25;98021.84;;;22.80;48.91
17635;BME280;8936;49.010;12.120;2023-05-29T08:33:52;98034.78;;;22.50;49.31
17635;BME280;8936;49.010;12.120;2023-05-29T08:36:20;98035.34;;;22.88;50.01
17635;BME280;8936;49.010;12.120;2023-05-29T08:38:47;98026.84;;;22.90;48.77
17635;BME280;8936;49.010;12.120;2023-05-29T08:41:15;98035.09;;;23.30;49.72
17635;BME280;8936;49.010;12.120;2023-05-29T08:43:43;98030.44;;;23.30;49.48
17635;BME280;8936;49.010;12.120;2023-05-29T08:46:10;98031.13;;;23.03;48.45
17635;BME280;8936;49.010;12.120;2023-05-29T08:48:39;98026.78;;;23.38;47.79
17635;BME280;8936;49.010;12.120;2023-05-29T08:51:06;98028.41;;;23.15;48.53
17635;BME280;8936;49.010;12.120;2023-05-29T08:53:35;98028.16;;;23.32;48.87
17635;BME280;8936;49.010;12.120;2023-05-29T08:56:02;98031.81;;;22.88;49.08
17635;BME280;8936;49.010;12.120;2023-05-29T08:58:28;98037.72;;;22.90;50.03
17635;BME280;8936;49.010;12.120;2023-05-29T09:00:56;98034.53;;;23.12;48.69
17635;BME280;8936;49.010;12.120;2023-05-29T09:03:23;98038.28;;;22.95;48.90
17635;BME280;8936;49.010;12.120;2023-05-29T09:05:49;98036.69;;;22.70;48.73
17635;BME280;8936;49.010;12.120;2023-05-29T09:08:16;98036.94;;;23.13;49.36
17635;BME280;8936;49.010;12.120;2023-05-29T09:10:44;98039.53;;;23.10;48.38
17635;BME280;8936;49.010;12.120;2023-05-29T09:13:11;98021.00;;;23.92;48.32
17635;BME280;8936;49.010;12.120;2023-05-29T09:15:38;98029.34;;;24.11;46.99
17635;BME280;8936;49.010;12.120;2023-05-29T09:18:07;98029.03;;;24.00;46.44
17635;BME280;8936;49.010;12.120;2023-05-29T09:20:34;98033.78;;;23.76;46.06
17635;BME280;8936;49.010;12.120;2023-05-29T09:23:02;98030.75;;;23.53;46.24
17635;BME280;8936;49.010;12.120;2023-05-29T09:25:29;98032.13;;;23.47;46.71
17635;BME280;8936;49.010;12.120;2023-05-29T09:27:59;98032.59;;;23.25;46.91
17635;BME280;8936;49.010;12.120;2023-05-29T09:30:36;98031.78;;;23.24;46.94
17635;BME280;8936;49.010;12.120;2023-05-29T09:33:02;98036.22;;;23.29;47.40
17635;BME280;8936;49.010;12.120;2023-05-29T09:35:33;98037.25;;;23.24;47.22
17635;BME280;8936;49.010;12.120;2023-05-29T09:38:00;98023.97;;;24.14;46.74
17635;BME280;8936;49.010;12.120;2023-05-29T09:40:26;98023.72;;;24.63;46.29
17635;BME280;8936;49.010;12.120;2023-05-29T09:42:55;98022.25;;;24.22;44.72
17635;BME280;8936;49.010;12.120;2023-05-29T09:45:23;98021.06;;;23.95;44.58
17635;BME280;8936;49.010;12.120;2023-05-29T09:47:50;98029.97;;;23.52;45.17
17635;BME280;8936;49.010;12.120;2023-05-29T09:50:20;98036.22;;;23.53;44.53
17635;BME280;8936;49.010;12.120;2023-05-29T09:52:46;98041.34;;;23.54;45.20
17635;BME280;8936;49.010;12.120;2023-05-29T09:55:17;98039.19;;;23.36;44.78
17635;BME280;8936;49.010;12.120;2023-05-29T09:57:45;98038.19;;;24.20;43.84
17635;BME280;8936;49.010;12.120;2023-05-29T10:00:13;98040.03;;;23.76;43.88
17635;BME280;8936;49.010;12.120;2023-05-29T10:02:41;98036.72;;;24.10;44.50
17635;BME280;8936;49.010;12.120;2023-05-29T10:05:07;98033.53;;;23.81;42.65
17635;BME280;8936;49.010;12.120;2023-05-29T10:07:35;98032.72;;;24.08;43.67
17635;BME280;8936;49.010;12.120;2023-05-29T10:10:02;98044.75;;;23.91;42.62
17635;BME280;8936;49.010;12.120;2023-05-29T10:12:30;98042.56;;;23.97;42.43
17635;BME280;8936;49.010;12.120;2023-05-29T10:14:57;98047.06;;;23.77;41.32
17635;BME280;8936;49.010;12.120;2023-05-29T10:17:25;98032.66;;;24.32;42.50
17635;BME280;8936;49.010;12.120;2023-05-29T10:19:54;98025.59;;;24.03;41.41
17635;BME280;8936;49.010;12.120;2023-05-29T10:22:23;98029.72;;;23.97;40.88
17635;BME280;8936;49.010;12.120;2023-05-29T10:24:51;98032.66;;;24.32;41.63
17635;BME280;8936;49.010;12.120;2023-05-29T10:27:17;98028.69;;;24.45;42.45
17635;BME280;8936;49.010;12.120;2023-05-29T10:29:47;98027.09;;;24.88;42.53
17635;BME280;8936;49.010;12.120;2023-05-29T10:32:20;98015.97;;;25.12;42.05
17635;BME280;8936;49.010;12.120;2023-05-29T10:34:48;98010.81;;;24.63;41.76
17635;BME280;8936;49.010;12.120;2023-05-29T10:37:23;98016.13;;;24.56;42.32
17635;BME280;8936;49.010;12.120;2023-05-29T10:40:02;98017.88;;;24.49;42.28
17635;BME280;8936;49.010;12.120;2023-05-29T10:42:43;98016.44;;;24.39;40.46
17635;BME280;8936;49.010;12.120;2023-05-29T10:45:10;98028.00;;;25.27;41.87
17635;BME280;8936;49.010;12.120;2023-05-29T10:47:37;98017.16;;;25.30;41.75
17635;BME280;8936;49.010;12.120;2023-05-29T10:50:04;98014.56;;;24.87;41.71
17635;BME280;8936;49.010;12.120;2023-05-29T10:52:32;98001.41;;;24.77;41.63
17635;BME280;8936;49.010;12.120;2023-05-29T10:54:58;98011.44;;;24.41;42.00
17635;BME280;8936;49.010;12.120;2023-05-29T10:57:25;98011.88;;;24.43;41.75
17635;BME280;8936;49.010;12.120;2023-05-29T11:00:06;98008.28;;;24.55;42.18
17635;BME280;8936;49.010;12.120;2023-05-29T11:02:38;98010.16;;;24.51;40.64
17635;BME280;8936;49.010;12.120;2023-05-29T11:07:55;98004.94;;;24.77;41.77
17635;BME280;8936;49.010;12.120;2023-05-29T11:10:40;98005.16;;;24.84;41.02
17635;BME280;8936;49.010;12.120;2023-05-29T11:13:07;98004.59;;;24.79;39.93
17635;BME280;8936;49.010;12.120;2023-05-29T11:15:33;98004.97;;;24.93;39.71
17635;BME280;8936;49.010;12.120;2023-05-29T11:18:05;98012.34;;;25.08;41.02
17635;BME280;8936;49.010;12.120;2023-05-29T11:20:42;98010.06;;;24.79;40.66
17635;BME280;8936;49.010;12.120;2023-05-29T11:23:13;98005.66;;;25.05;41.28
17635;BME280;8936;49.010;12.120;2023-05-29T11:25:43;98008.81;;;24.92;39.94
17635;BME280;8936;49.010;12.120;2023-05-29T11:28:10;98013.25;;;24.96;40.75
17635;BME280;8936;49.010;12.120;2023-05-29T11:30:43;98012.59;;;24.71;39.57
17635;BME280;8936;49.010;12.120;2023-05-29T11:33:12;98010.13;;;24.66;39.90
17635;BME280;8936;49.010;12.120;2023-05-29T11:35:42;98006.66;;;24.82;41.14
17635;BME280;8936;49.010;12.120;2023-05-29T11:38:08;98000.69;;;24.80;38.58
17635;BME280;8936;49.010;12.120;2023-05-29T11:40:38;98002.63;;;24.79;39.50
17635;BME280;8936;49.010;12.120;2023-05-29T11:43:04;98009.06;;;24.55;39.83
17635;BME280;8936;49.010;12.120;2023-05-29T11:45:32;97996.75;;;24.93;40.68
17635;BME280;8936;49.010;12.120;2023-05-29T11:47:59;97994.81;;;24.78;40.17
17635;BME280;8936;49.010;12.120;2023-05-29T11:50:26;97995.16;;;24.60;40.30
17635;BME280;8936;49.010;12.120;2023-05-29T11:52:53;97997.13;;;24.76;41.00
17635;BME280;8936;49.010;12.120;2023-05-29T11:55:20;97992.44;;;24.92;40.99
17635;BME280;8936;49.010;12.120;2023-05-29T11:57:47;97997.03;;;25.03;40.13
17635;BME280;8936;49.010;12.120;2023-05-29T12:00:14;97991.56;;;25.03;40.33
17635;BME280;8936;49.010;12.120;2023-05-29T12:02:41;98002.88;;;25.21;40.90
17635;BME280;8936;49.010;12.120;2023-05-29T12:05:08;97995.56;;;25.44;38.58
17635;BME280;8936;49.010;12.120;2023-05-29T12:07:35;97987.25;;;25.37;36.13
17635;BME280;8936;49.010;12.120;2023-05-29T12:10:11;97995.28;;;25.30;36.50
17635;BME280;8936;49.010;12.120;2023-05-29T12:12:38;97994.25;;;25.19;37.46
17635;BME280;8936;49.010;12.120;2023-05-29T12:15:07;97989.34;;;25.09;38.33
17635;BME280;8936;49.010;12.120;2023-05-29T12:17:33;97988.72;;;25.35;38.67
17635;BME280;8936;49.010;12.120;2023-05-29T12:20:00;97983.78;;;25.40;38.47
17635;BME280;8936;49.010;12.120;2023-05-29T12:22:32;97993.72;;;25.13;38.35
17635;BME280;8936;49.010;12.120;2023-05-29T12:25:05;97991.72;;;24.95;38.07
17635;BME280;8936;49.010;12.120;2023-05-29T12:27:32;97981.34;;;25.00;38.27
17635;BME280;8936;49.010;12.120;2023-05-29T12:30:03;97988.22;;;25.29;38.60
17635;BME280;8936;49.010;12.120;2023-05-29T12:32:35;97978.09;;;25.30;37.70
17635;BME280;8936;49.010;12.120;2023-05-29T12:35:09;97984.78;;;25.32;37.77
17635;BME280;8936;49.010;12.120;2023-05-29T12:37:35;97982.84;;;25.33;37.66
17635;BME280;8936;49.010;12.120;2023-05-29T12:40:13;97977.03;;;25.34;36.71
17635;BME280;8936;49.010;12.120;2023-05-29T12:42:40;97984.06;;;25.35;37.62
17635;BME280;8936;49.010;12.120;2023-05-29T12:45:07;97972.06;;;25.40;37.89
17635;BME280;8936;49.010;12.120;2023-05-29T12:47:36;97979.31;;;25.32;38.49
17635;BME280;8936;49.010;12.120;2023-05-29T12:50:18;97981.84;;;25.41;38.53
17635;BME280;8936;49.010;12.120;2023-05-29T12:52:45;97979.38;;;25.51;38.77
17635;BME280;8936;49.010;12.120;2023-05-29T12:55:11;97979.06;;;25.56;39.03
17635;BME280;8936;49.010;12.120;2023-05-29T12:57:37;97974.41;;;25.41;38.55
17635;BME280;8936;49.010;12.120;2023-05-29T13:00:05;97975.59;;;25.40;38.64
17635;BME280;8936;49.010;12.120;2023-05-29T13:02:36;97973.00;;;25.28;39.10
17635;BME280;8936;49.010;12.120;2023-05-29T13:05:03;97973.25;;;25.23;39.52